createdAt,value
2018-04-15T00:01:15.100Z,53.83
2018-04-15T00:03:42.807Z,55.57
2018-04-15T00:06:11.826Z,51.90
2018-04-15T00:08:39.308Z,52.67
2018-04-15T00:11:06.908Z,53.93
2018-04-15T00:13:34.411Z,52.80
2018-04-15T00:16:01.949Z,54.00
2018-04-15T00:18:29.420Z,54.63
2018-04-15T00:20:57.798Z,55.17
2018-04-15T00:23:25.256Z,52.90
2018-04-15T00:25:52.876Z,55.30
2018-04-15T00:28:21.378Z,54.50
2018-04-15T00:30:49.730Z,52.70
2018-04-15T00:33:17.994Z,52.20
2018-04-15T00:35:45.628Z,53.80
2018-04-15T00:38:13.863Z,55.27
2018-04-15T00:40:42.195Z,53.47
2018-04-15T00:43:10.308Z,54.67
2018-04-15T00:45:38.621Z,54.50
2018-04-15T00:48:06.154Z,53.90
2018-04-15T00:50:33.668Z,52.00
2018-04-15T00:53:01.394Z,54.27
2018-04-15T00:55:29.216Z,54.67
2018-04-15T00:57:56.800Z,53.37
2018-04-15T01:00:24.367Z,54.57
2018-04-15T01:02:52.000Z,52.13
2018-04-15T01:05:19.543Z,55.47
2018-04-15T01:07:47.845Z,53.80
2018-04-15T01:10:15.439Z,54.77
2018-04-15T01:12:43.666Z,54.60
2018-04-15T01:15:11.169Z,52.20
2018-04-15T01:17:38.726Z,54.40
2018-04-15T01:20:06.296Z,54.63
2018-04-15T01:22:33.845Z,56.30
2018-04-15T01:25:01.355Z,56.60
2018-04-15T01:27:28.866Z,55.60
2018-04-15T01:29:56.731Z,54.00
2018-04-15T01:32:24.354Z,54.53
2018-04-15T01:34:52.034Z,54.30
2018-04-15T01:37:21.392Z,56.07
2018-04-15T01:39:49.100Z,53.33
2018-04-15T01:42:17.654Z,58.40
2018-04-15T01:44:45.914Z,54.53
2018-04-15T01:47:13.675Z,56.70
2018-04-15T01:49:41.358Z,54.60
2018-04-15T01:52:09.055Z,56.23
2018-04-15T01:54:36.759Z,55.77
2018-04-15T01:57:04.600Z,57.00
2018-04-15T01:59:33.045Z,55.77
2018-04-15T02:02:00.666Z,61.13
2018-04-15T02:04:29.185Z,58.90
2018-04-15T02:06:56.986Z,62.57
2018-04-15T02:09:24.540Z,59.40
2018-04-15T02:11:52.177Z,58.00
2018-04-15T02:14:19.788Z,60.83
2018-04-15T02:16:47.482Z,60.60
2018-04-15T02:19:15.459Z,61.73
2018-04-15T02:21:43.109Z,59.17
2018-04-15T02:24:11.517Z,58.17
2018-04-15T02:26:39.216Z,56.83
2018-04-15T02:29:06.907Z,59.80
2018-04-15T02:31:34.590Z,59.80
2018-04-15T02:34:03.121Z,56.93
2018-04-15T02:36:34.240Z,59.93
2018-04-15T02:39:02.625Z,58.13
2018-04-15T02:41:31.141Z,59.63
2018-04-15T02:43:58.716Z,60.63
2018-04-15T02:46:26.489Z,60.40
2018-04-15T02:48:54.098Z,62.53
2018-04-15T02:51:22.624Z,60.37
2018-04-15T02:53:52.884Z,60.77
2018-04-15T02:56:20.932Z,58.47
2018-04-15T02:58:48.528Z,57.43
2018-04-15T03:01:16.305Z,60.13
2018-04-15T03:03:45.527Z,63.67
2018-04-15T03:06:14.009Z,60.67
2018-04-15T03:08:44.699Z,59.40
2018-04-15T03:11:12.268Z,60.57
2018-04-15T03:13:39.795Z,62.40
2018-04-15T03:16:07.581Z,61.50
2018-04-15T03:18:35.140Z,62.20
2018-04-15T03:21:02.785Z,62.27
2018-04-15T03:23:31.290Z,64.50
2018-04-15T03:25:58.875Z,63.40
2018-04-15T03:28:26.357Z,62.80
2018-04-15T03:30:53.912Z,62.50
2018-04-15T03:33:21.450Z,67.40
2018-04-15T03:35:49.034Z,64.13
2018-04-15T03:38:16.601Z,66.90
2018-04-15T03:40:44.177Z,65.93
2018-04-15T03:43:11.790Z,63.20
2018-04-15T03:45:39.423Z,66.67
2018-04-15T03:48:06.956Z,69.00
2018-04-15T03:50:34.506Z,72.03
2018-04-15T03:53:02.207Z,70.97
2018-04-15T03:55:29.732Z,68.10
2018-04-15T03:57:58.013Z,70.73
2018-04-15T04:00:25.564Z,67.43
2018-04-15T04:02:53.460Z,69.43
2018-04-15T04:05:21.134Z,67.93
2018-04-15T04:07:48.848Z,71.43
2018-04-15T04:10:17.290Z,68.60
2018-04-15T04:12:44.864Z,72.40
2018-04-15T04:15:12.383Z,72.17
2018-04-15T04:17:39.899Z,73.50
2018-04-15T04:20:10.903Z,73.87
2018-04-15T04:22:39.183Z,71.97
2018-04-15T04:25:06.760Z,80.33
2018-04-15T04:27:35.228Z,74.47
2018-04-15T04:30:02.811Z,75.27
2018-04-15T04:32:30.362Z,76.57
2018-04-15T04:34:57.898Z,71.87
2018-04-15T04:37:26.266Z,80.30
2018-04-15T04:39:53.771Z,76.33
2018-04-15T04:42:22.360Z,75.77
2018-04-15T04:44:53.737Z,76.87
2018-04-15T04:47:21.322Z,78.07
2018-04-15T04:49:48.882Z,75.43
2018-04-15T04:52:16.405Z,72.87
2018-04-15T04:54:43.964Z,74.97
2018-04-15T04:57:11.574Z,70.43
2018-04-15T04:59:39.266Z,72.53
2018-04-15T05:02:06.758Z,68.97
2018-04-15T05:04:35.022Z,71.00
2018-04-15T05:07:02.611Z,69.10
2018-04-15T05:09:30.947Z,70.77
2018-04-15T05:12:00.136Z,69.10
2018-04-15T05:14:27.645Z,69.40
2018-04-15T05:16:55.543Z,65.27
2018-04-15T05:19:23.143Z,60.47
2018-04-15T05:21:50.943Z,60.23
2018-04-15T05:24:19.243Z,55.47
2018-04-15T05:26:46.944Z,55.20
2018-04-15T05:29:14.504Z,53.23
2018-04-15T05:31:42.557Z,47.77
2018-04-15T05:34:10.038Z,49.90
2018-04-15T05:36:37.631Z,44.97
2018-04-15T05:39:05.178Z,47.43
2018-04-15T05:41:32.881Z,45.80
2018-04-15T05:44:00.394Z,47.40
2018-04-15T05:46:27.991Z,46.70
2018-04-15T05:48:55.585Z,42.90
2018-04-15T05:51:23.942Z,40.33
2018-04-15T05:53:54.693Z,43.03
2018-04-15T05:56:22.211Z,45.50
2018-04-15T05:58:49.727Z,44.87
2018-04-15T06:01:17.385Z,43.83
2018-04-15T06:03:45.031Z,45.20
2018-04-15T06:06:12.788Z,48.10
2018-04-15T06:08:40.458Z,46.90
2018-04-15T06:11:11.138Z,45.93
2018-04-15T06:13:38.681Z,42.00
2018-04-15T06:16:06.253Z,45.43
2018-04-15T06:18:36.933Z,43.03
2018-04-15T06:21:04.431Z,34.70
2018-04-15T06:23:31.999Z,37.10
2018-04-15T06:25:59.522Z,37.30
2018-04-15T06:28:27.048Z,32.40
2018-04-15T06:30:55.548Z,33.70
2018-04-15T06:33:23.110Z,33.33
2018-04-15T06:35:51.638Z,31.27
2018-04-15T06:38:19.924Z,30.07
2018-04-15T06:40:47.492Z,31.90
2018-04-15T06:43:18.168Z,32.07
2018-04-15T06:45:45.928Z,30.77
2018-04-15T06:48:13.453Z,29.73
2018-04-15T06:50:41.090Z,30.83
2018-04-15T06:53:08.663Z,32.50
2018-04-15T06:55:36.429Z,27.87
2018-04-15T06:58:04.721Z,27.00
2018-04-15T07:00:32.400Z,26.50
2018-04-15T07:02:59.948Z,26.47
2018-04-15T07:05:27.459Z,26.67
2018-04-15T07:07:54.924Z,23.03
2018-04-15T07:10:22.526Z,22.77
2018-04-15T07:12:50.035Z,20.93
2018-04-15T07:15:17.567Z,19.80
2018-04-15T07:17:45.100Z,18.50
2018-04-15T07:20:12.539Z,17.30
2018-04-15T07:22:40.040Z,19.83
2018-04-15T07:25:08.288Z,17.27
2018-04-15T07:27:35.751Z,15.23
2018-04-15T07:30:03.643Z,15.70
2018-04-15T07:32:31.586Z,16.87
2018-04-15T07:34:59.815Z,16.70
2018-04-15T07:37:28.004Z,15.20
2018-04-15T07:39:55.659Z,14.53
2018-04-15T07:42:23.983Z,13.57
2018-04-15T07:44:51.472Z,11.70
2018-04-15T07:47:19.323Z,11.50
2018-04-15T07:49:46.810Z,11.00
2018-04-15T07:52:14.304Z,9.60
2018-04-15T07:54:41.767Z,10.50
2018-04-15T07:57:09.301Z,9.67
2018-04-15T07:59:36.741Z,9.83
2018-04-15T08:02:04.302Z,9.10
2018-04-15T08:04:31.908Z,8.60
2018-04-15T08:06:59.430Z,7.60
2018-04-15T08:09:27.088Z,8.73
2018-04-15T08:11:55.398Z,7.00
2018-04-15T08:14:22.911Z,6.83
2018-04-15T08:16:51.066Z,6.43
2018-04-15T08:19:19.302Z,7.37
2018-04-15T08:21:46.863Z,7.40
2018-04-15T08:24:14.307Z,7.27
2018-04-15T08:26:41.970Z,8.90
2018-04-15T08:29:09.635Z,9.90
2018-04-15T08:31:37.207Z,10.83
2018-04-15T08:34:05.368Z,11.17
2018-04-15T08:36:32.839Z,11.10
2018-04-15T08:39:00.316Z,9.90
2018-04-15T08:41:27.888Z,9.53
2018-04-15T08:43:55.433Z,10.43
2018-04-15T08:46:23.668Z,10.07
2018-04-15T08:48:51.299Z,7.60
2018-04-15T08:51:18.854Z,7.23
2018-04-15T08:53:46.529Z,6.63
2018-04-15T08:56:14.053Z,14.00
2018-04-15T08:58:41.633Z,6.43
2018-04-15T09:01:09.198Z,6.10
2018-04-15T09:03:36.718Z,7.90
2018-04-15T09:06:04.175Z,5.87
2018-04-15T09:08:32.468Z,5.30
2018-04-15T09:11:00.718Z,5.00
2018-04-15T09:13:28.210Z,5.13
2018-04-15T09:15:55.807Z,4.20
2018-04-15T09:18:24.005Z,4.00
2018-04-15T09:20:51.534Z,7.23
2018-04-15T09:23:19.128Z,1.97
2018-04-15T09:25:47.413Z,2.30
2018-04-15T09:28:15.444Z,2.07
2018-04-15T09:30:43.031Z,2.10
2018-04-15T09:33:11.293Z,2.30
2018-04-15T09:35:38.872Z,1.67
2018-04-15T09:38:07.056Z,2.67
2018-04-15T09:40:35.345Z,2.40
2018-04-15T09:43:02.848Z,1.90
2018-04-15T09:45:30.338Z,2.30
2018-04-15T09:47:59.372Z,1.30
2018-04-15T09:50:27.949Z,1.13
2018-04-15T09:52:56.206Z,1.27
2018-04-15T09:55:24.584Z,1.80
2018-04-15T09:57:52.903Z,1.80
2018-04-15T10:00:21.145Z,1.80
2018-04-15T10:02:49.454Z,1.70
2018-04-15T10:05:17.748Z,1.93
2018-04-15T10:07:45.288Z,1.47
2018-04-15T10:10:13.548Z,1.73
2018-04-15T10:12:41.824Z,1.87
2018-04-15T10:15:09.342Z,1.50
2018-04-15T10:17:36.985Z,1.20
2018-04-15T10:20:05.243Z,1.40
2018-04-15T10:22:33.528Z,1.77
2018-04-15T10:25:01.803Z,1.23
2018-04-15T10:27:30.169Z,1.37
2018-04-15T10:29:57.646Z,1.83
2018-04-15T10:32:25.116Z,1.27
2018-04-15T10:34:52.620Z,1.67
2018-04-15T10:37:20.111Z,1.10
2018-04-15T10:39:47.659Z,0.90
2018-04-15T10:42:15.150Z,1.13
2018-04-15T10:44:42.701Z,0.80
2018-04-15T10:47:10.283Z,1.10
2018-04-15T10:49:37.795Z,1.20
2018-04-15T10:52:05.504Z,0.80
2018-04-15T10:54:32.993Z,0.70
2018-04-15T10:57:01.519Z,1.23
2018-04-15T10:59:29.012Z,0.80
2018-04-15T11:01:56.587Z,0.70
2018-04-15T11:04:24.791Z,0.90
2018-04-15T11:06:53.130Z,0.90
2018-04-15T11:09:20.625Z,0.60
2018-04-15T11:11:48.681Z,0.73
2018-04-15T11:14:16.169Z,1.00
2018-04-15T11:16:43.806Z,0.60
2018-04-15T11:19:11.346Z,0.87
2018-04-15T11:21:39.968Z,5.43
2018-04-15T11:24:07.463Z,3.20
2018-04-15T11:26:34.961Z,1.13
2018-04-15T11:29:02.500Z,0.60
2018-04-15T11:31:30.065Z,0.60
2018-04-15T11:33:58.406Z,0.80
2018-04-15T11:36:26.220Z,0.60
2018-04-15T11:38:53.741Z,0.93
2018-04-15T11:41:21.268Z,0.80
2018-04-15T11:43:49.666Z,0.90
2018-04-15T11:46:18.142Z,0.90
2018-04-15T11:48:45.611Z,0.80
2018-04-15T11:51:13.388Z,0.70
2018-04-15T11:53:40.878Z,0.60
2018-04-15T11:56:08.417Z,0.70
2018-04-15T11:58:36.053Z,0.70
2018-04-15T12:01:03.665Z,0.70
2018-04-15T12:03:31.429Z,0.80
2018-04-15T12:05:58.985Z,0.70
2018-04-15T12:08:26.472Z,0.97
2018-04-15T12:10:54.796Z,0.80
2018-04-15T12:13:22.412Z,0.70
2018-04-15T12:15:49.939Z,0.87
2018-04-15T12:18:17.441Z,0.60
2018-04-15T12:20:45.724Z,0.83
2018-04-15T12:23:13.345Z,0.60
2018-04-15T12:25:40.928Z,0.70
2018-04-15T12:28:08.441Z,3.40
2018-04-15T12:30:36.269Z,2.20
2018-04-15T12:33:03.872Z,0.70
2018-04-15T12:35:31.397Z,0.90
2018-04-15T12:37:58.947Z,0.70
2018-04-15T12:40:26.628Z,0.80
2018-04-15T12:42:54.435Z,0.70
2018-04-15T12:45:21.907Z,0.70
2018-04-15T12:47:49.419Z,0.70
2018-04-15T12:50:16.988Z,0.60
2018-04-15T12:52:44.522Z,0.73
2018-04-15T12:55:12.013Z,0.60
2018-04-15T12:57:39.524Z,0.60
2018-04-15T13:00:07.053Z,1.17
2018-04-15T13:02:34.577Z,1.07
2018-04-15T13:05:02.158Z,0.70
2018-04-15T13:07:30.356Z,0.50
2018-04-15T13:09:57.907Z,0.60
2018-04-15T13:12:25.337Z,0.50
2018-04-15T13:14:52.905Z,17.90
2018-04-15T13:17:20.404Z,13.07
2018-04-15T13:19:47.908Z,1.57
2018-04-15T13:22:15.522Z,19.77
2018-04-15T13:24:43.934Z,3.60
2018-04-15T13:27:12.276Z,1.33
2018-04-15T13:29:40.495Z,23.87
2018-04-15T13:32:08.006Z,6.33
2018-04-15T13:34:35.563Z,2.47
2018-04-15T13:37:03.076Z,1.77
2018-04-15T13:39:30.590Z,5.80
2018-04-15T13:41:58.256Z,2.40
2018-04-15T13:44:25.838Z,29.70
2018-04-15T13:46:53.372Z,5.47
2018-04-15T13:49:20.856Z,1.33
2018-04-15T13:51:50.069Z,1.50
2018-04-15T13:54:17.847Z,2.03
2018-04-15T13:56:46.251Z,1.60
2018-04-15T13:59:14.861Z,1.70
2018-04-15T14:01:43.136Z,1.07
2018-04-15T14:04:11.426Z,1.60
2018-04-15T14:06:39.715Z,3.00
2018-04-15T14:09:07.964Z,1.93
2018-04-15T14:11:35.546Z,1.13
2018-04-15T14:14:03.175Z,1.50
2018-04-15T14:16:35.098Z,4.83
2018-04-15T14:19:02.613Z,11.30
2018-04-15T14:21:30.184Z,70.07
2018-04-15T14:23:57.725Z,37.20
2018-04-15T14:26:25.971Z,9.17
2018-04-15T14:28:53.469Z,2.70
2018-04-15T14:31:22.399Z,8.70
2018-04-15T14:33:55.530Z,5.03
2018-04-15T14:36:24.070Z,1.20
2018-04-15T14:38:52.154Z,7.23
2018-04-15T14:41:21.830Z,3.10
2018-04-15T14:43:49.581Z,4.13
2018-04-15T14:46:18.041Z,18.57
2018-04-15T14:48:45.508Z,18.87
2018-04-15T14:51:13.779Z,4.20
2018-04-15T14:53:42.068Z,4.87
2018-04-15T14:56:12.415Z,6.00
2018-04-15T14:58:39.944Z,20.07
2018-04-15T15:01:08.062Z,9.40
2018-04-15T15:03:35.630Z,18.70
2018-04-15T15:06:03.065Z,2.90
2018-04-15T15:08:31.230Z,11.03
2018-04-15T15:10:58.742Z,2.00
2018-04-15T15:13:26.281Z,2.60
2018-04-15T15:15:53.753Z,1.77
2018-04-15T15:18:21.220Z,1.40
2018-04-15T15:20:49.334Z,1.07
2018-04-15T15:23:16.782Z,0.83
2018-04-15T15:25:44.342Z,1.27
2018-04-15T15:28:12.670Z,1.33
2018-04-15T15:30:40.901Z,1.33
2018-04-15T15:33:08.346Z,1.40
2018-04-15T15:35:35.852Z,2.00
2018-04-15T15:38:03.837Z,1.07
2018-04-15T15:40:31.366Z,1.40
2018-04-15T15:42:58.859Z,1.00
2018-04-15T15:45:26.373Z,1.23
2018-04-15T15:47:54.279Z,6.13
2018-04-15T15:50:21.767Z,1.20
2018-04-15T15:52:50.070Z,56.83
2018-04-15T15:55:18.599Z,10.57
2018-04-15T15:57:46.635Z,1.50
2018-04-15T16:00:14.999Z,1.53
2018-04-15T16:02:42.461Z,1.53
2018-04-15T16:05:10.918Z,1.47
2018-04-15T16:07:38.525Z,1.47
2018-04-15T16:10:06.177Z,1.50
2018-04-15T16:12:33.620Z,1.80
2018-04-15T16:15:01.157Z,1.27
2018-04-15T16:17:34.467Z,1.00
2018-04-15T16:20:02.704Z,2.03
2018-04-15T16:22:30.934Z,1.40
2018-04-15T16:24:58.495Z,6.73
2018-04-15T16:27:28.818Z,1.73
2018-04-15T16:29:56.451Z,1.50
2018-04-15T16:32:24.041Z,8.13
2018-04-15T16:34:51.452Z,3.47
2018-04-15T16:37:19.918Z,5.20
2018-04-15T16:39:47.409Z,32.50
2018-04-15T16:42:15.753Z,2.87
2018-04-15T16:47:30.207Z,1.90
2018-04-15T16:49:58.574Z,2.40
2018-04-15T16:52:26.792Z,0.80
2018-04-15T16:54:54.420Z,1.33
2018-04-15T16:57:22.627Z,1.43
2018-04-15T16:59:50.465Z,1.87
2018-04-15T17:02:17.962Z,1.90
2018-04-15T17:04:45.831Z,2.37
2018-04-15T17:07:13.382Z,1.53
2018-04-15T17:09:40.928Z,2.50
2018-04-15T17:12:08.479Z,2.50
2018-04-15T17:14:36.042Z,1.87
2018-04-15T17:17:04.325Z,1.50
2018-04-15T17:19:31.846Z,2.47
2018-04-15T17:21:59.386Z,2.07
2018-04-15T17:24:27.045Z,2.40
2018-04-15T17:26:56.112Z,1.90
2018-04-15T17:29:23.642Z,2.40
2018-04-15T17:31:51.203Z,1.80
2018-04-15T17:34:18.764Z,2.43
2018-04-15T17:36:46.200Z,2.17
2018-04-15T17:39:13.731Z,2.63
2018-04-15T17:41:41.612Z,2.50
2018-04-15T17:44:09.154Z,2.73
2018-04-15T17:46:36.800Z,2.40
2018-04-15T17:49:04.331Z,42.93
2018-04-15T17:51:31.843Z,2.73
2018-04-15T17:53:59.365Z,2.70
2018-04-15T17:56:28.705Z,2.50
2018-04-15T17:58:56.331Z,2.90
2018-04-15T18:01:23.780Z,3.10
2018-04-15T18:03:51.285Z,3.47
2018-04-15T18:06:18.846Z,3.50
2018-04-15T18:08:56.345Z,3.77
2018-04-15T18:11:24.597Z,3.23
2018-04-15T18:13:52.170Z,3.83
2018-04-15T18:26:35.516Z,4.20
2018-04-15T18:29:03.040Z,5.10
2018-04-15T18:31:30.731Z,4.80
2018-04-15T18:33:59.031Z,4.70
2018-04-15T18:36:26.515Z,4.70
2018-04-15T18:38:54.349Z,5.53
2018-04-15T18:41:21.996Z,4.53
2018-04-15T18:43:50.241Z,4.60
2018-04-15T18:46:17.843Z,3.40
2018-04-15T18:48:46.719Z,3.70
2018-04-15T18:51:14.521Z,3.10
2018-04-15T18:53:43.915Z,5.20
2018-04-15T18:56:13.649Z,4.23
2018-04-15T18:58:43.188Z,3.60
2018-04-15T19:01:10.790Z,4.20
2018-04-15T19:03:40.197Z,4.47
2018-04-15T19:06:07.705Z,4.30
2018-04-15T19:08:35.319Z,3.90
2018-04-15T19:11:03.753Z,3.83
2018-04-15T19:13:31.296Z,5.10
2018-04-15T19:15:59.625Z,6.37
2018-04-15T19:18:27.231Z,5.53
2018-04-15T19:20:54.823Z,5.97
2018-04-15T19:23:22.901Z,9.87
2018-04-15T19:25:50.583Z,10.20
2018-04-15T19:28:18.118Z,7.27
2018-04-15T19:30:46.637Z,4.70
2018-04-15T19:33:14.186Z,5.40
2018-04-15T19:35:42.511Z,4.80
2018-04-15T19:38:11.785Z,4.33
2018-04-15T19:40:39.583Z,4.90
2018-04-15T19:43:08.214Z,4.60
2018-04-15T19:45:36.575Z,5.63
2018-04-15T19:48:04.060Z,4.80
2018-04-15T19:50:32.267Z,4.63
2018-04-15T19:52:59.845Z,4.90
2018-04-15T19:55:27.347Z,5.80
2018-04-15T19:57:55.716Z,5.70
2018-04-15T20:00:23.774Z,5.00
2018-04-15T20:02:51.412Z,5.17
2018-04-15T20:05:18.894Z,5.10
2018-04-15T20:07:46.457Z,5.10
2018-04-15T20:10:13.945Z,5.40
2018-04-15T20:12:41.619Z,5.73
2018-04-15T20:15:09.796Z,5.40
2018-04-15T20:17:37.312Z,4.77
2018-04-15T20:20:04.821Z,5.77
2018-04-15T20:22:32.324Z,6.53
2018-04-15T20:24:59.828Z,6.17
2018-04-15T20:27:27.354Z,5.73
2018-04-15T20:29:55.249Z,6.50
2018-04-15T20:32:22.827Z,5.93
2018-04-15T20:34:50.422Z,6.03
2018-04-15T20:37:18.311Z,6.60
2018-04-15T20:39:45.809Z,6.13
2018-04-15T20:42:13.476Z,7.47
2018-04-15T20:44:40.994Z,7.60
2018-04-15T20:47:08.601Z,7.17
2018-04-15T20:49:37.204Z,6.20
2018-04-15T20:52:04.765Z,8.07
2018-04-15T20:54:32.386Z,8.70
2018-04-15T20:57:00.822Z,7.87
2018-04-15T20:59:29.291Z,8.47
2018-04-15T21:01:56.800Z,7.43
2018-04-15T21:04:24.706Z,6.73
2018-04-15T21:06:52.500Z,7.97
2018-04-15T21:09:21.426Z,6.90
2018-04-15T21:11:48.971Z,8.07
2018-04-15T21:14:16.469Z,8.57
2018-04-15T21:16:44.059Z,8.40
2018-04-15T21:19:15.259Z,8.27
2018-04-15T21:21:42.809Z,9.43
2018-04-15T21:24:10.316Z,8.53
2018-04-15T21:26:38.584Z,9.00
2018-04-15T21:29:07.236Z,8.53
2018-04-15T21:31:34.748Z,9.70
2018-04-15T21:34:03.225Z,10.50
2018-04-15T21:36:31.294Z,9.90
2018-04-15T21:39:00.087Z,10.83
2018-04-15T21:41:27.655Z,11.13
2018-04-15T21:43:55.203Z,9.83
2018-04-15T21:46:23.454Z,10.80
2018-04-15T21:48:51.051Z,11.07
2018-04-15T21:51:18.722Z,11.00
2018-04-15T21:53:46.347Z,11.30
2018-04-15T21:56:14.037Z,10.87
2018-04-15T21:58:41.595Z,11.00
2018-04-15T22:01:09.186Z,12.07
2018-04-15T22:03:36.728Z,11.70
2018-04-15T22:06:04.230Z,13.57
2018-04-15T22:08:32.616Z,13.50
2018-04-15T22:11:00.970Z,12.47
2018-04-15T22:13:28.508Z,14.50
2018-04-15T22:15:56.117Z,14.57
2018-04-15T22:18:23.702Z,14.07
2018-04-15T22:20:51.217Z,15.40
2018-04-15T22:23:18.767Z,14.57
2018-04-15T22:25:47.222Z,15.23
2018-04-15T22:28:15.050Z,15.00
2018-04-15T22:30:42.585Z,17.03
2018-04-15T22:33:10.093Z,15.57
2018-04-15T22:35:38.453Z,17.20
2018-04-15T22:38:05.950Z,15.03
2018-04-15T22:40:33.510Z,15.80
2018-04-15T22:43:01.048Z,15.53
2018-04-15T22:45:28.912Z,14.70
2018-04-15T22:47:56.447Z,13.87
2018-04-15T22:50:24.085Z,13.70
2018-04-15T22:52:52.222Z,12.93
2018-04-15T22:55:19.976Z,11.03
2018-04-15T22:57:47.456Z,11.23
2018-04-15T23:00:15.291Z,11.23
2018-04-15T23:02:42.806Z,11.20
2018-04-15T23:05:11.093Z,10.57
2018-04-15T23:07:39.364Z,8.17
2018-04-15T23:10:06.863Z,9.40
2018-04-15T23:12:34.430Z,9.00
2018-04-15T23:15:01.959Z,8.53
2018-04-15T23:17:31.128Z,8.80
2018-04-15T23:19:58.743Z,7.90
2018-04-15T23:22:27.035Z,8.60
2018-04-15T23:24:54.577Z,8.27
2018-04-15T23:27:22.903Z,9.93
2018-04-15T23:29:50.357Z,9.57
2018-04-15T23:32:17.870Z,10.83
2018-04-15T23:34:45.388Z,9.30
2018-04-15T23:37:12.887Z,9.90
2018-04-15T23:39:40.403Z,10.77
2018-04-15T23:42:09.094Z,10.67
2018-04-15T23:44:36.602Z,9.90
2018-04-15T23:47:04.167Z,10.73
2018-04-15T23:49:31.723Z,11.20
2018-04-15T23:51:59.230Z,11.70
2018-04-15T23:54:26.740Z,12.00
2018-04-15T23:56:54.293Z,12.77
2018-04-15T23:59:21.773Z,14.23
